Terminal Aerodrome Forecast
Issued by NWS

Home | Current Version | Previous Version | Text Only | Print | Product List | Glossary On
Versions: 1 2 3 4 5 6 7 8 9 10 11 12 13 14 15 16 17 18 19 20 21 22 23 24 25 26 27 28 29
000
FTUS46 KEKA 242340
TAFCEC
TAF
KCEC 242340Z 2500/2524 18010KT P6SM FEW006
     FM250300 19006KT 6SM BR OVC005
     FM250500 19004KT 2SM BR FEW001 OVC003
     FM252100 18010KT P6SM FEW005=

USA.gov is the U.S. government's official web portal to all federal, state and local government web resources and services.